Valle Di Nervion — IBPC — position and weather

sailwx.info

Track history (hours):
 
Tides and Currents Weather Stations Pressure Air Temp Water Temp Dewpoint Dewpoint Depression Visibility Wind Speed Wind Dir Waves Ship Positions

Valle Di Nervion

Last reported at 2014-Aug-31 21:22 UTC. Time now 2014-Sep-01 21:03 UTC.
Position N 34°22' E 032°21'.

Length 176 m; draft 8 m.

Type: Ship (hazmat cat D). MMSI: 247109500.

Date/timePositionNaut miles runAvg speedWind from/ knotsBaromVisibWave heightAir tempDewpointWater temp
2014-Aug-31 21:22N 34°22' E 032°21'1012.1
2014-Aug-31 20:33N 34°20' E 032°33'1212.4
2014-Aug-31 19:33N 34°17' E 032°48'1212.4
2014-Aug-31 18:33N 34°15' E 033°02'2512.6
2014-Aug-31 16:33N 34°09' E 033°32'1312.7
2014-Aug-31 15:33N 34°07' E 033°47'1312.8
2014-Aug-31 14:33N 34°04' E 034°02'1312.9
2014-Aug-31 13:33N 34°02' E 034°17'2613.0
2014-Aug-31 11:32N 33°57' E 034°49'  
2014-Aug-27 19:07N 34°08' E 035°38'1 0.0
2014-Aug-26 20:13N 34°07' E 035°37'0 0.0
2014-Aug-26 19:25N 34°07' E 035°37'0 0.0
2014-Aug-26 18:31N 34°07' E 035°37'0 0.0
2014-Aug-26 17:31N 34°07' E 035°37'0 0.0
2014-Aug-26 16:07N 34°07' E 035°37'0 0.0
2014-Aug-26 15:22N 34°07' E 035°37'0 0.0
2014-Aug-26 14:28N 34°07' E 035°37'0 0.0
2014-Aug-26 13:31N 34°07' E 035°37'0 0.0
2014-Aug-26 10:31N 34°08' E 035°37'0 0.0
2014-Aug-25 23:25N 34°07' E 035°37'0 0.0
2014-Aug-25 19:28N 34°08' E 035°37'0 0.0
2014-Aug-25 15:33N 34°08' E 035°37'0 0.0
2014-Aug-25 09:03N 34°08' E 035°37'0 0.0
2014-Aug-25 08:24N 34°08' E 035°37'0 0.0
2014-Aug-25 07:09N 34°08' E 035°37'0 0.0
2014-Aug-25 04:06N 34°08' E 035°37'0 0.0
2014-Aug-25 03:30N 34°08' E 035°37'0 0.0
2014-Aug-25 02:24N 34°08' E 035°37'0 0.0
2014-Aug-25 01:24N 34°08' E 035°37'0 0.0
2014-Aug-25 00:18N 34°08' E 035°37'0 0.0
2014-Aug-24 23:33N 34°08' E 035°37'0 0.0
2014-Aug-24 22:24N 34°08' E 035°37'0 0.0
2014-Aug-24 21:33N 34°08' E 035°37'0 0.0
2014-Aug-24 20:18N 34°08' E 035°37'0 0.2
2014-Aug-24 19:33N 34°08' E 035°37'3 3.4
2014-Aug-24 18:33N 34°05' E 035°35'1312.8
2014-Aug-24 17:33N 33°55' E 035°25'1512.9
2014-Aug-24 16:25N 33°55' E 035°07'1112.7
2014-Aug-24 15:33N 33°55' E 034°54'1312.7
2014-Aug-24 14:33N 33°59' E 034°39'1313.0
2014-Aug-24 13:33N 34°03' E 034°24'1313.2
2014-Aug-24 12:33N 34°07' E 034°09'1413.5
2014-Aug-24 11:33N 34°11' E 033°54'1313.5
2014-Aug-24 10:33N 34°14' E 033°38'1313.4
2014-Aug-24 09:33N 34°17' E 033°22'1313.5
2014-Aug-24 08:33N 34°20' E 033°06'1413.9
2014-Aug-24 07:33N 34°24' E 032°50'1313.1
2014-Aug-24 06:33N 34°27' E 032°35'1313.4
2014-Aug-24 05:33N 34°31' E 032°19'32212.4
2014-Aug-23 03:33N 37°06' E 026°30'1312.9
2014-Aug-23 02:33N 37°14' E 026°18'1312.6
2014-Aug-23 01:33N 37°22' E 026°06'1212.5
2014-Aug-23 00:33N 37°30' E 025°53'1412.9
2014-Aug-22 23:29N 37°43' E 025°51'1812.5
2014-Aug-22 22:04N 38°01' E 025°48'612.5
2014-Aug-22 21:33N 38°07' E 025°46'1312.7
2014-Aug-22 20:33N 38°20' E 025°44'2512.5
2014-Aug-22 18:33N 38°45' E 025°43'1312.8
2014-Aug-22 17:32N 38°58' E 025°44'4112.6
2014-Aug-22 14:14N 39°39' E 025°44'2312.5
2014-Aug-22 12:24N 39°60' E 025°57'4812.4
2014-Aug-22 08:33N 40°27' E 026°48'22 3.4
2014-Aug-22 02:14N 40°37' E 027°14'4012.6
2014-Aug-21 23:06N 40°49' E 028°03'812.4
2014-Aug-21 22:26N 40°50' E 028°14'  
Track history (hours):
 
Tides and Currents Weather Stations Pressure Air Temp Water Temp Dewpoint Dewpoint Depression Visibility Wind Speed Wind Dir Waves Ship Positions

Valle Di Nervion

Last reported at 2014-Aug-31 21:22 UTC. Time now 2014-Sep-01 21:03 UTC.
Position N 34°22' E 032°21'.

Length 176 m; draft 8 m.

Type: Ship (hazmat cat D). MMSI: 247109500.

Date/timePositionNaut miles runAvg speedWind from/ knotsBaromVisibWave heightAir tempDewpointWater temp
2014-Aug-31 21:22N 34°22' E 032°21'1012.1
2014-Aug-31 20:33N 34°20' E 032°33'1212.4
2014-Aug-31 19:33N 34°17' E 032°48'1212.4
2014-Aug-31 18:33N 34°15' E 033°02'2512.6
2014-Aug-31 16:33N 34°09' E 033°32'1312.7
2014-Aug-31 15:33N 34°07' E 033°47'1312.8
2014-Aug-31 14:33N 34°04' E 034°02'1312.9
2014-Aug-31 13:33N 34°02' E 034°17'2613.0
2014-Aug-31 11:32N 33°57' E 034°49'  
2014-Aug-27 19:07N 34°08' E 035°38'1 0.0
2014-Aug-26 20:13N 34°07' E 035°37'0 0.0
2014-Aug-26 19:25N 34°07' E 035°37'0 0.0
2014-Aug-26 18:31N 34°07' E 035°37'0 0.0
2014-Aug-26 17:31N 34°07' E 035°37'0 0.0
2014-Aug-26 16:07N 34°07' E 035°37'0 0.0
2014-Aug-26 15:22N 34°07' E 035°37'0 0.0
2014-Aug-26 14:28N 34°07' E 035°37'0 0.0
2014-Aug-26 13:31N 34°07' E 035°37'0 0.0
2014-Aug-26 10:31N 34°08' E 035°37'0 0.0
2014-Aug-25 23:25N 34°07' E 035°37'0 0.0
2014-Aug-25 19:28N 34°08' E 035°37'0 0.0
2014-Aug-25 15:33N 34°08' E 035°37'0 0.0
2014-Aug-25 09:03N 34°08' E 035°37'0 0.0
2014-Aug-25 08:24N 34°08' E 035°37'0 0.0
2014-Aug-25 07:09N 34°08' E 035°37'0 0.0
2014-Aug-25 04:06N 34°08' E 035°37'0 0.0
2014-Aug-25 03:30N 34°08' E 035°37'0 0.0
2014-Aug-25 02:24N 34°08' E 035°37'0 0.0
2014-Aug-25 01:24N 34°08' E 035°37'0 0.0
2014-Aug-25 00:18N 34°08' E 035°37'0 0.0
2014-Aug-24 23:33N 34°08' E 035°37'0 0.0
2014-Aug-24 22:24N 34°08' E 035°37'0 0.0
2014-Aug-24 21:33N 34°08' E 035°37'0 0.0
2014-Aug-24 20:18N 34°08' E 035°37'0 0.2
2014-Aug-24 19:33N 34°08' E 035°37'3 3.4
2014-Aug-24 18:33N 34°05' E 035°35'1312.8
2014-Aug-24 17:33N 33°55' E 035°25'1512.9
2014-Aug-24 16:25N 33°55' E 035°07'1112.7
2014-Aug-24 15:33N 33°55' E 034°54'1312.7
2014-Aug-24 14:33N 33°59' E 034°39'1313.0
2014-Aug-24 13:33N 34°03' E 034°24'1313.2
2014-Aug-24 12:33N 34°07' E 034°09'1413.5
2014-Aug-24 11:33N 34°11' E 033°54'1313.5
2014-Aug-24 10:33N 34°14' E 033°38'1313.4
2014-Aug-24 09:33N 34°17' E 033°22'1313.5
2014-Aug-24 08:33N 34°20' E 033°06'1413.9
2014-Aug-24 07:33N 34°24' E 032°50'1313.1
2014-Aug-24 06:33N 34°27' E 032°35'1313.4
2014-Aug-24 05:33N 34°31' E 032°19'32212.4
2014-Aug-23 03:33N 37°06' E 026°30'1312.9
2014-Aug-23 02:33N 37°14' E 026°18'1312.6
2014-Aug-23 01:33N 37°22' E 026°06'1212.5
2014-Aug-23 00:33N 37°30' E 025°53'1412.9
2014-Aug-22 23:29N 37°43' E 025°51'1812.5
2014-Aug-22 22:04N 38°01' E 025°48'612.5
2014-Aug-22 21:33N 38°07' E 025°46'1312.7
2014-Aug-22 20:33N 38°20' E 025°44'2512.5
2014-Aug-22 18:33N 38°45' E 025°43'1312.8
2014-Aug-22 17:32N 38°58' E 025°44'4112.6
2014-Aug-22 14:14N 39°39' E 025°44'2312.5
2014-Aug-22 12:24N 39°60' E 025°57'4812.4
2014-Aug-22 08:33N 40°27' E 026°48'22 3.4
2014-Aug-22 02:14N 40°37' E 027°14'4012.6
2014-Aug-21 23:06N 40°49' E 028°03'812.4
2014-Aug-21 22:26N 40°50' E 028°14'  

Dump ship's entire track history